Time;durP1;ratioP1;P1;durP2;ratioP2;P2;SDS_P1;SDS_P2;PMS_P1;PMS_P2;Temp;Humidity;BMP_temperature;BMP_pressure;BME280_temperature;BME280_humidity;BME280_pressure;Samples;Min_cycle;Max_cycle;Signal;HPM_P1;HPM_P2
2022/01/27 00:04:37;;;;;;;17.37;3.83;;;-12.20;99.90;;;;;;2220948;64;20100;-45
2022/01/27 00:07:04;;;;;;;18.50;5.40;;;-12.30;99.90;;;;;;2224909;64;20551;-43
2022/01/27 00:12:08;;;;;;;13.90;3.90;;;-12.30;99.90;;;;;;2224843;64;20189;-44
2022/01/27 00:14:44;;;;;;;21.63;5.33;;;-12.30;99.90;;;;;;2224560;64;20107;-43
2022/01/27 00:17:14;;;;;;;21.90;7.07;;;-12.30;99.90;;;;;;2224862;64;20550;-44
2022/01/27 00:19:41;;;;;;;15.50;6.67;;;-12.30;99.90;;;;;;2224785;64;20111;-44
2022/01/27 00:22:08;;;;;;;7.63;3.07;;;-12.30;99.90;;;;;;2224760;64;20123;-42
2022/01/27 00:24:34;;;;;;;23.93;8.43;;;-12.30;99.90;;;;;;2224172;64;20091;-43
2022/01/27 00:27:01;;;;;;;19.50;6.53;;;-12.20;99.90;;;;;;2221008;64;20093;-44
2022/01/27 00:29:27;;;;;;;24.57;7.73;;;-12.20;99.90;;;;;;2220832;64;20077;-44
2022/01/27 00:31:53;;;;;;;27.47;7.77;;;-12.20;99.90;;;;;;2220975;64;20100;-45
2022/01/27 00:34:20;;;;;;;23.20;7.50;;;-12.20;99.90;;;;;;2220887;64;20105;-41
2022/01/27 00:36:46;;;;;;;26.33;6.90;;;-12.20;99.90;;;;;;2220834;64;20092;-43
2022/01/27 00:39:13;;;;;;;22.40;5.80;;;-12.20;99.90;;;;;;2220967;64;20084;-42
2022/01/27 00:41:39;;;;;;;20.13;6.03;;;-12.10;99.90;;;;;;2220900;64;20096;-45
2022/01/27 00:44:06;;;;;;;21.97;8.13;;;-12.10;99.90;;;;;;2220875;64;20101;-43
2022/01/27 00:46:36;;;;;;;18.80;5.80;;;-12.10;99.90;;;;;;2220686;64;20080;-43
2022/01/27 00:49:02;;;;;;;22.93;6.87;;;-12.10;99.90;;;;;;2221000;64;20085;-44
2022/01/27 00:51:34;;;;;;;20.33;8.13;;;-12.00;99.90;;;;;;2220572;64;20104;-43
2022/01/27 00:56:38;;;;;;;20.60;8.87;;;-12.00;99.90;;;;;;2220721;64;20107;-43
2022/01/27 00:59:28;;;;;;;25.63;8.80;;;-12.00;99.90;;;;;;2221069;64;20089;-43
2022/01/27 01:02:21;;;;;;;22.33;7.50;;;-11.90;99.90;;;;;;2220793;64;20100;-44
2022/01/27 01:04:49;;;;;;;23.10;7.07;;;-11.90;99.90;;;;;;2217668;64;20088;-44
2022/01/27 01:07:17;;;;;;;24.13;6.63;;;-11.90;99.90;;;;;;2220858;64;20089;-45
2022/01/27 01:13:32;;;;;;;24.13;8.07;;;-11.90;99.90;;;;;;2220794;64;20088;-44
2022/01/27 01:15:31;;;;;;;22.00;7.87;;;-11.90;99.90;;;;;;2220645;64;20107;-45
2022/01/27 01:18:09;;;;;;;25.40;7.13;;;-11.90;99.90;;;;;;2220822;64;20544;-45
2022/01/27 01:20:54;;;;;;;18.60;5.63;;;-11.80;99.90;;;;;;2220850;64;20096;-42
2022/01/27 01:34:23;;;;;;;21.55;5.88;;;-11.80;99.90;;;;;;2221241;64;20475;-43
2022/01/27 01:36:56;;;;;;;25.93;8.20;;;-11.80;99.90;;;;;;2224483;64;20100;-44
2022/01/27 01:39:27;;;;;;;19.90;6.57;;;-11.80;99.90;;;;;;2224451;64;20107;-45
2022/01/27 01:41:54;;;;;;;11.63;4.33;;;-11.80;99.90;;;;;;2224365;64;20238;-44
2022/01/27 01:44:21;;;;;;;16.47;6.20;;;-11.80;99.90;;;;;;2224576;64;20077;-45
2022/01/27 01:46:47;;;;;;;20.30;6.53;;;-11.80;99.90;;;;;;2224494;64;20100;-44
2022/01/27 01:49:14;;;;;;;19.13;6.27;;;-11.80;99.90;;;;;;2224273;64;20494;-45
2022/01/27 01:51:43;;;;;;;19.30;7.77;;;-11.90;99.90;;;;;;2220597;64;20111;-45
2022/01/27 01:54:09;;;;;;;19.57;5.80;;;-11.80;99.90;;;;;;2224466;64;20080;-43
2022/01/27 01:56:36;;;;;;;16.17;5.83;;;-11.80;99.90;;;;;;2224385;64;20095;-44
2022/01/27 01:59:05;;;;;;;21.00;5.47;;;-11.90;99.90;;;;;;2220804;64;20540;-43
2022/01/27 02:01:32;;;;;;;16.93;6.53;;;-11.90;99.90;;;;;;2225252;64;20120;-45
2022/01/27 02:04:04;;;;;;;15.00;5.90;;;-11.80;99.90;;;;;;2224887;64;20092;-44
2022/01/27 02:06:41;;;;;;;17.20;5.03;;;-11.80;99.90;;;;;;2225266;64;20096;-45
2022/01/27 02:09:23;;;;;;;25.70;8.27;;;-11.80;99.90;;;;;;2225226;64;20476;-44
2022/01/27 02:20:08;;;;;;;22.10;7.90;;;-11.80;99.90;;;;;;2211973;64;20164;-44
2022/01/27 02:22:34;;;;;;;20.93;6.07;;;-11.80;99.90;;;;;;2211810;64;20240;-44
2022/01/27 02:25:01;;;;;;;21.73;7.03;;;-11.90;99.90;;;;;;2211965;64;20124;-45
2022/01/27 02:27:28;;;;;;;15.03;5.37;;;-11.90;99.90;;;;;;2208458;64;20101;-43
2022/01/27 02:29:54;;;;;;;26.67;7.13;;;-11.90;99.90;;;;;;2211706;64;20136;-43
2022/01/27 02:32:22;;;;;;;20.20;5.10;;;-11.90;99.90;;;;;;2211795;64;20098;-44
2022/01/27 02:34:49;;;;;;;19.17;7.30;;;-12.00;99.90;;;;;;2212062;64;20078;-45
2022/01/27 02:37:15;;;;;;;20.27;6.07;;;-12.00;99.90;;;;;;2208491;64;20112;-44
2022/01/27 02:39:42;;;;;;;23.37;5.57;;;-12.00;99.90;;;;;;2211907;64;20101;-43
2022/01/27 02:42:16;;;;;;;21.53;6.37;;;-12.00;99.90;;;;;;2213991;64;20463;-44
2022/01/27 02:44:45;;;;;;;;;;;-12.00;99.90;;;;;;2225176;64;20088;-47
2022/01/27 02:47:13;;;;;;;21.87;7.07;;;-12.10;99.90;;;;;;2224911;64;19972;-41
2022/01/27 02:49:39;;;;;;;14.30;5.07;;;-12.10;99.90;;;;;;2224948;64;20088;-45
2022/01/27 02:52:06;;;;;;;14.90;4.87;;;-12.10;99.90;;;;;;2221250;64;20096;-44
2022/01/27 02:54:32;;;;;;;13.70;3.47;;;-12.10;99.90;;;;;;2224821;64;20172;-45
2022/01/27 02:56:59;;;;;;;12.80;4.50;;;-12.10;99.90;;;;;;2220872;64;20089;-44
2022/01/27 02:59:25;;;;;;;24.57;8.37;;;-12.10;99.90;;;;;;2221015;64;20096;-46
2022/01/27 03:01:52;;;;;;;10.90;3.17;;;-12.10;99.90;;;;;;2221244;64;20099;-44
2022/01/27 03:04:20;;;;;;;18.80;5.77;;;-12.10;99.90;;;;;;2220967;64;20100;-46
2022/01/27 03:06:47;;;;;;;16.63;5.33;;;-12.10;99.90;;;;;;2221111;64;20097;-44
2022/01/27 03:09:14;;;;;;;13.77;5.63;;;-12.10;99.90;;;;;;2220959;64;20628;-44
2022/01/27 03:11:58;;;;;;;17.10;6.03;;;-12.10;99.90;;;;;;2220940;64;20100;-44
2022/01/27 03:14:24;;;;;;;11.60;3.88;;;-12.00;99.90;;;;;;2220791;64;20085;-44
2022/01/27 03:16:56;;;;;;;4.90;1.57;;;-12.00;99.90;;;;;;2220930;64;20085;-45
2022/01/27 03:19:23;;;;;;;22.60;6.57;;;-12.00;99.90;;;;;;2220917;64;20544;-45
2022/01/27 03:21:50;;;;;;;15.30;4.83;;;-11.90;99.90;;;;;;2221063;64;20089;-43
2022/01/27 03:24:17;;;;;;;19.83;6.07;;;-11.90;99.90;;;;;;2219078;64;20116;-46
2022/01/27 03:26:44;;;;;;;17.03;6.37;;;-11.90;99.90;;;;;;2219335;64;20088;-44
2022/01/27 03:29:11;;;;;;;21.40;6.03;;;-11.80;99.90;;;;;;2219248;64;20096;-45
2022/01/27 03:31:37;;;;;;;18.93;5.93;;;-11.80;99.90;;;;;;2215990;64;20089;-45
2022/01/27 03:34:04;;;;;;;18.33;4.77;;;-11.80;99.90;;;;;;2219282;64;20230;-45
2022/01/27 03:36:30;;;;;;;17.07;4.17;;;-11.80;99.90;;;;;;2219292;64;20162;-44
2022/01/27 03:38:57;;;;;;;19.60;5.87;;;-11.70;99.90;;;;;;2219326;64;20088;-43
2022/01/27 03:41:23;;;;;;;20.93;6.30;;;-11.70;99.90;;;;;;2219390;64;20107;-44
2022/01/27 03:43:50;;;;;;;15.40;5.53;;;-11.70;99.90;;;;;;2215884;64;20167;-44
2022/01/27 03:46:17;;;;;;;19.07;5.23;;;-11.70;99.90;;;;;;2219225;64;20080;-43
2022/01/27 03:48:43;;;;;;;21.03;5.57;;;-11.70;99.90;;;;;;2219264;64;20097;-44
2022/01/27 03:51:10;;;;;;;15.13;3.97;;;-11.60;99.90;;;;;;2216187;64;20444;-44
2022/01/27 03:53:36;;;;;;;20.33;6.10;;;-11.60;99.90;;;;;;2219236;64;20085;-46
2022/01/27 03:56:03;;;;;;;17.47;5.10;;;-11.60;99.90;;;;;;2219122;64;20104;-45
2022/01/27 03:58:29;;;;;;;14.43;4.63;;;-11.60;99.90;;;;;;2219036;64;20181;-43
2022/01/27 04:00:56;;;;;;;20.77;6.70;;;-11.60;99.90;;;;;;2218961;64;20230;-48
2022/01/27 04:03:23;;;;;;;13.57;3.93;;;-11.60;99.90;;;;;;2216958;64;20177;-45
2022/01/27 04:05:54;;;;;;;19.57;5.43;;;-11.60;99.90;;;;;;2217107;64;20646;-44
2022/01/27 04:08:21;;;;;;;19.60;6.17;;;-11.60;99.90;;;;;;2216343;64;20545;-46
2022/01/27 04:10:49;;;;;;;17.57;5.57;;;-11.70;99.90;;;;;;2216768;64;20201;-45
2022/01/27 04:13:15;;;;;;;15.13;5.80;;;-11.70;99.90;;;;;;2217006;64;20553;-45
2022/01/27 04:15:42;;;;;;;15.43;4.87;;;-11.70;99.90;;;;;;2217206;64;20081;-48
2022/01/27 04:18:10;;;;;;;14.47;4.20;;;-11.70;99.90;;;;;;2216905;64;20108;-45
2022/01/27 04:20:38;;;;;;;17.20;5.30;;;-11.80;99.90;;;;;;2216996;64;20571;-46
2022/01/27 04:23:04;;;;;;;17.13;4.77;;;-11.80;99.90;;;;;;2216683;64;20442;-45
2022/01/27 04:25:31;;;;;;;12.97;3.87;;;-11.80;99.90;;;;;;2218979;64;20089;-44
2022/01/27 04:28:03;;;;;;;13.07;4.80;;;-11.80;99.90;;;;;;2220924;64;20091;-46
2022/01/27 04:30:29;;;;;;;18.43;5.43;;;-11.80;99.90;;;;;;2220750;64;20606;-45
2022/01/27 04:32:58;;;;;;;17.33;4.60;;;-11.80;99.90;;;;;;2220716;64;20103;-44
2022/01/27 04:35:27;;;;;;;10.90;4.30;;;-11.80;99.90;;;;;;2220880;64;20107;-44
2022/01/27 04:38:19;;;;;;;20.73;7.43;;;-11.80;99.90;;;;;;2220802;64;20530;-46
2022/01/27 04:43:31;;;;;;;16.67;5.77;;;-11.70;99.90;;;;;;2220774;64;20096;-48
2022/01/27 04:48:40;;;;;;;16.90;6.93;;;-11.70;99.90;;;;;;2220799;64;20088;-46
2022/01/27 04:51:09;;;;;;;13.25;4.75;;;-11.60;99.90;;;;;;2220643;64;20542;-47
2022/01/27 04:53:53;;;;;;;23.17;6.27;;;-11.50;99.90;;;;;;2220589;64;20080;-48
2022/01/27 04:56:20;;;;;;;16.00;5.40;;;-11.50;99.90;;;;;;2223439;64;20096;-49
2022/01/27 04:58:51;;;;;;;24.80;7.70;;;-11.50;99.90;;;;;;2224360;64;20476;-50
2022/01/27 05:01:19;;;;;;;20.40;5.67;;;-11.40;99.90;;;;;;2220847;64;20092;-51
2022/01/27 05:03:52;;;;;;;21.53;5.70;;;-11.30;99.90;;;;;;2224449;64;20108;-50
2022/01/27 05:06:18;;;;;;;25.73;9.47;;;-11.30;99.90;;;;;;2224827;64;20098;-48
2022/01/27 05:08:45;;;;;;;23.77;7.67;;;-11.20;99.90;;;;;;2224663;64;20088;-51
2022/01/27 05:11:25;;;;;;;23.43;8.67;;;-11.20;99.90;;;;;;2220554;64;20589;-49
2022/01/27 05:14:03;;;;;;;17.10;5.33;;;-11.10;99.90;;;;;;2210789;64;20128;-49
2022/01/27 05:16:29;;;;;;;17.40;5.97;;;-11.00;99.90;;;;;;2211174;64;20090;-47
2022/01/27 05:18:56;;;;;;;26.47;8.13;;;-10.90;99.90;;;;;;2211300;64;20089;-46
2022/01/27 05:21:22;;;;;;;20.80;6.67;;;-10.90;99.90;;;;;;2211486;64;20178;-48
2022/01/27 05:23:49;;;;;;;26.47;8.60;;;-10.90;99.90;;;;;;2211398;64;20292;-44
2022/01/27 05:26:16;;;;;;;19.10;6.33;;;-10.80;99.90;;;;;;2204971;64;20094;-49
2022/01/27 05:28:42;;;;;;;15.27;5.93;;;-10.70;99.90;;;;;;2206871;64;20090;-45
2022/01/27 05:31:09;;;;;;;17.83;5.87;;;-10.70;99.90;;;;;;2207387;64;20090;-47
2022/01/27 05:33:35;;;;;;;29.03;6.43;;;-10.70;99.90;;;;;;2207344;64;20164;-51
2022/01/27 05:36:02;;;;;;;20.83;6.07;;;-10.60;99.90;;;;;;2207299;64;20554;-44
2022/01/27 05:38:28;;;;;;;14.80;4.17;;;-10.60;99.90;;;;;;2207225;64;20185;-48
2022/01/27 05:40:55;;;;;;;12.40;4.37;;;-10.60;99.90;;;;;;2207419;64;20170;-45
2022/01/27 05:43:21;;;;;;;20.40;7.03;;;-10.60;99.90;;;;;;2207325;64;20153;-40
2022/01/27 05:45:47;;;;;;;17.23;6.33;;;-10.50;99.90;;;;;;2207145;64;20746;-46
2022/01/27 05:48:14;;;;;;;21.03;6.80;;;-10.50;99.90;;;;;;2207460;64;20074;-47
2022/01/27 05:50:40;;;;;;;17.77;6.00;;;-10.50;99.90;;;;;;2209747;64;20089;-50
2022/01/27 05:53:07;;;;;;;20.73;6.70;;;-10.40;99.90;;;;;;2220592;64;20553;-51
2022/01/27 05:55:33;;;;;;;26.67;8.23;;;-10.30;99.90;;;;;;2220318;64;20088;-50
2022/01/27 05:58:00;;;;;;;32.07;9.93;;;-10.10;99.90;;;;;;2220611;64;20085;-50
2022/01/27 06:00:27;;;;;;;20.27;8.10;;;-10.10;99.90;;;;;;2216576;64;20111;-46
2022/01/27 06:02:54;;;;;;;23.37;7.13;;;-10.00;99.90;;;;;;2220376;64;20093;-50
2022/01/27 06:05:21;;;;;;;16.50;4.63;;;-9.90;99.90;;;;;;2220430;64;20092;-49
2022/01/27 06:07:47;;;;;;;23.40;8.37;;;-9.80;99.90;;;;;;2220731;64;20168;-50
2022/01/27 06:10:14;;;;;;;31.53;9.07;;;-9.70;99.90;;;;;;2220400;64;20181;-50
2022/01/27 06:12:56;;;;;;;18.27;7.43;;;-9.50;99.90;;;;;;2220419;64;20108;-48
2022/01/27 06:15:23;;;;;;;24.63;7.37;;;-9.40;99.90;;;;;;2216886;64;20081;-47
2022/01/27 06:17:49;;;;;;;22.60;7.97;;;-9.20;99.90;;;;;;2216601;64;20599;-49
2022/01/27 06:20:17;;;;;;;22.37;8.43;;;-9.10;99.90;;;;;;2216511;64;20557;-50
2022/01/27 06:22:43;;;;;;;42.90;14.43;;;-8.90;99.90;;;;;;2220491;64;20148;-49
2022/01/27 06:25:10;;;;;;;28.50;11.13;;;-8.70;99.90;;;;;;2221621;64;20096;-47
2022/01/27 06:27:37;;;;;;;28.37;8.07;;;-8.60;99.90;;;;;;2224492;64;20107;-48
2022/01/27 06:30:05;;;;;;;7.47;3.20;;;-8.40;99.90;;;;;;2224318;64;20172;-49
2022/01/27 06:32:32;;;;;;;21.47;6.93;;;-8.30;99.90;;;;;;2224368;64;20099;-46
2022/01/27 06:34:59;;;;;;;27.20;9.90;;;-8.30;99.90;;;;;;2224262;64;20091;-45
2022/01/27 06:37:25;;;;;;;22.80;8.23;;;-8.30;99.90;;;;;;2224205;64;20102;-45
2022/01/27 06:39:52;;;;;;;19.83;5.90;;;-8.30;99.90;;;;;;2224245;64;20454;-47
2022/01/27 06:42:19;;;;;;;21.87;8.93;;;-8.40;99.90;;;;;;2224429;64;20174;-47
2022/01/27 06:44:45;;;;;;;18.10;6.93;;;-8.30;99.90;;;;;;2220192;64;20123;-49
2022/01/27 06:47:12;;;;;;;20.57;5.57;;;-8.10;99.90;;;;;;2221243;64;20084;-46
2022/01/27 06:49:38;;;;;;;25.63;9.27;;;-8.00;99.90;;;;;;2224702;64;20531;-45
2022/01/27 06:52:06;;;;;;;27.77;7.83;;;-8.00;99.90;;;;;;2225033;64;20102;-47
2022/01/27 06:54:33;;;;;;;18.07;6.20;;;-7.90;99.90;;;;;;2224875;64;20088;-47
2022/01/27 06:57:00;;;;;;;16.87;5.70;;;-7.80;99.90;;;;;;2224813;64;20092;-45
2022/01/27 06:59:27;;;;;;;21.00;7.57;;;-7.70;99.90;;;;;;2224740;64;20169;-47
2022/01/27 07:01:53;;;;;;;13.00;4.43;;;-7.50;99.90;;;;;;2225026;64;20103;-44
2022/01/27 07:04:20;;;;;;;20.77;6.77;;;-7.40;99.90;;;;;;2224793;64;20131;-46
2022/01/27 07:06:48;;;;;;;20.43;7.03;;;-7.40;99.90;;;;;;2225097;64;20076;-45
2022/01/27 07:09:14;;;;;;;17.70;5.93;;;-7.40;99.90;;;;;;2224881;64;20099;-45
2022/01/27 07:11:41;;;;;;;15.80;5.13;;;-7.40;99.90;;;;;;2224766;64;20103;-46
2022/01/27 07:14:07;;;;;;;19.70;6.07;;;-7.30;99.90;;;;;;2224970;64;20555;-46
2022/01/27 07:16:34;;;;;;;20.00;6.20;;;-7.30;99.90;;;;;;2224967;64;20092;-46
2022/01/27 07:19:01;;;;;;;15.00;5.87;;;-7.40;99.90;;;;;;2224786;64;20091;-48
2022/01/27 07:21:27;;;;;;;17.40;6.07;;;-7.40;99.90;;;;;;2224984;64;20103;-43
2022/01/27 07:23:54;;;;;;;19.43;6.60;;;-7.50;99.90;;;;;;2224874;64;20084;-48
2022/01/27 07:26:25;;;;;;;16.77;6.17;;;-7.60;99.90;;;;;;2221424;64;20100;-46
2022/01/27 07:28:53;;;;;;;22.67;8.07;;;-7.70;99.90;;;;;;2220984;64;20085;-45
2022/01/27 07:31:19;;;;;;;17.93;6.40;;;-7.70;99.90;;;;;;2220810;64;20088;-45
2022/01/27 07:33:48;;;;;;;17.43;5.67;;;-7.60;99.90;;;;;;2220967;64;20093;-47
2022/01/27 07:36:20;;;;;;;17.77;6.93;;;-7.60;99.90;;;;;;2217190;64;20545;-46
2022/01/27 07:38:48;;;;;;;17.20;5.33;;;-7.50;99.90;;;;;;2220827;64;20605;-45
2022/01/27 07:41:15;;;;;;;21.07;6.73;;;-7.60;99.90;;;;;;2221049;64;20100;-48
2022/01/27 07:43:41;;;;;;;19.83;6.63;;;-7.60;99.90;;;;;;2220843;64;20085;-48
2022/01/27 07:46:11;;;;;;;19.80;7.50;;;-7.60;99.90;;;;;;2220879;64;20096;-46
2022/01/27 07:48:41;;;;;;;13.20;5.83;;;-7.70;99.90;;;;;;2220695;64;20172;-47
2022/01/27 07:51:08;;;;;;;17.03;5.20;;;-7.70;99.90;;;;;;2220783;64;20235;-45
2022/01/27 07:53:35;;;;;;;16.10;6.00;;;-7.70;99.90;;;;;;2220735;64;20127;-47
2022/01/27 07:56:02;;;;;;;17.23;6.60;;;-7.70;99.90;;;;;;2220641;64;20197;-46
2022/01/27 07:58:30;;;;;;;16.57;7.47;;;-7.70;99.90;;;;;;2220749;64;20107;-42
2022/01/27 08:00:56;;;;;;;14.13;5.87;;;-7.60;99.90;;;;;;2217016;64;20097;-45
2022/01/27 08:03:23;;;;;;;19.50;6.57;;;-7.70;99.90;;;;;;2217041;64;20524;-46
2022/01/27 08:05:49;;;;;;;20.50;7.33;;;-7.50;99.90;;;;;;2220834;64;20540;-44
2022/01/27 08:08:15;;;;;;;24.17;8.93;;;-7.50;99.90;;;;;;2220671;64;20103;-48
2022/01/27 08:10:44;;;;;;;21.20;5.60;;;-7.50;99.90;;;;;;2220829;64;20115;-46
2022/01/27 08:13:11;;;;;;;19.57;7.10;;;-7.50;99.90;;;;;;2220735;64;20558;-47
2022/01/27 08:15:37;;;;;;;14.03;5.13;;;-7.40;99.90;;;;;;2220917;64;20512;-47
2022/01/27 08:18:04;;;;;;;19.93;6.67;;;-7.30;99.90;;;;;;2220706;64;20098;-46
2022/01/27 08:20:31;;;;;;;26.07;8.37;;;-7.30;99.90;;;;;;2220625;64;20085;-43
2022/01/27 08:22:58;;;;;;;22.03;6.63;;;-7.20;99.90;;;;;;2220736;64;20088;-46
2022/01/27 08:25:25;;;;;;;23.57;8.07;;;-7.20;99.90;;;;;;2218707;64;20092;-43
2022/01/27 08:27:55;;;;;;;23.90;7.63;;;-7.10;99.90;;;;;;2224553;64;20175;-46
2022/01/27 08:30:24;;;;;;;24.53;8.60;;;-7.00;99.90;;;;;;2224506;64;20552;-48
2022/01/27 08:32:58;;;;;;;25.73;8.33;;;-7.10;99.90;;;;;;2224505;64;20183;-47
2022/01/27 08:35:25;;;;;;;16.85;6.80;;;-7.10;99.90;;;;;;2224665;64;20095;-44
2022/01/27 08:37:52;;;;;;;25.23;6.90;;;-7.00;99.90;;;;;;2224579;64;20084;-45
2022/01/27 08:40:19;;;;;;;23.90;6.43;;;-6.90;99.90;;;;;;2224523;64;20110;-45
2022/01/27 08:42:45;;;;;;;21.60;6.57;;;-6.90;99.90;;;;;;2224371;64;20084;-46
2022/01/27 08:45:14;;;;;;;24.33;8.90;;;-6.80;99.90;;;;;;2224725;64;20084;-46
2022/01/27 08:47:42;;;;;;;21.07;6.73;;;-6.80;99.90;;;;;;2224366;64;20107;-48
2022/01/27 08:50:10;;;;;;;24.33;5.43;;;-6.80;99.90;;;;;;2224665;64;20095;-47
2022/01/27 08:52:37;;;;;;;16.73;5.23;;;-6.70;99.90;;;;;;2224582;64;20095;-47
2022/01/27 08:55:04;;;;;;;26.43;5.77;;;-6.70;99.90;;;;;;2220519;64;20087;-48
2022/01/27 08:57:31;;;;;;;19.77;6.50;;;-6.60;99.90;;;;;;2224399;64;20553;-46
2022/01/27 08:59:57;;;;;;;25.40;5.37;;;-6.60;99.90;;;;;;2220870;64;20092;-46
2022/01/27 09:02:24;;;;;;;14.67;4.93;;;-6.50;99.90;;;;;;2224379;64;20559;-47
2022/01/27 09:04:52;;;;;;;21.17;4.97;;;-6.30;99.90;;;;;;2224520;64;20076;-46
2022/01/27 09:07:18;;;;;;;20.77;6.13;;;-6.10;99.90;;;;;;2224388;64;20610;-45
2022/01/27 09:09:45;;;;;;;9.57;3.83;;;-6.00;99.90;;;;;;2224540;64;20088;-46
2022/01/27 09:12:12;;;;;;;20.20;6.97;;;-5.90;99.90;;;;;;2220681;64;20099;-48
2022/01/27 09:14:41;;;;;;;17.40;4.83;;;-5.80;99.90;;;;;;2224541;64;20103;-45
2022/01/27 09:17:11;;;;;;;25.00;7.50;;;-5.70;99.90;;;;;;2224344;64;20670;-47
2022/01/27 09:19:40;;;;;;;31.63;8.47;;;-5.70;99.90;;;;;;2224407;64;20103;-48
2022/01/27 09:22:11;;;;;;;20.13;7.63;;;-5.60;99.90;;;;;;2224452;64;20177;-48
2022/01/27 09:24:51;;;;;;;29.03;9.83;;;-5.50;99.90;;;;;;2223944;64;20092;-51
2022/01/27 09:27:18;;;;;;;23.23;7.73;;;-5.40;99.90;;;;;;2220426;64;20073;-47
2022/01/27 09:29:47;;;;;;;28.63;10.13;;;-5.40;99.90;;;;;;2220637;64;20104;-49
2022/01/27 09:32:17;;;;;;;29.50;9.73;;;-5.30;99.90;;;;;;2220472;64;20429;-46
2022/01/27 09:34:44;;;;;;;21.77;8.97;;;-5.30;99.90;;;;;;2220502;64;20092;-48
2022/01/27 09:37:10;;;;;;;31.60;10.63;;;-5.20;99.90;;;;;;2220518;64;20092;-47
2022/01/27 09:39:37;;;;;;;24.23;8.30;;;-5.30;99.90;;;;;;2220666;64;20113;-48
2022/01/27 09:42:05;;;;;;;26.67;9.43;;;-5.40;99.90;;;;;;2220491;64;20101;-46
2022/01/27 09:44:32;;;;;;;25.73;9.40;;;-5.40;99.90;;;;;;2220620;64;20088;-50
2022/01/27 09:47:01;;;;;;;26.13;8.33;;;-5.50;99.90;;;;;;2220303;64;20100;-47
2022/01/27 09:50:36;;;;;;;27.07;10.90;;;-5.50;99.90;;;;;;2220577;64;20103;-48
2022/01/27 09:52:24;;;;;;;20.38;7.43;;;-5.50;99.90;;;;;;2213623;64;20089;-47
2022/01/27 09:54:50;;;;;;;23.23;8.33;;;-5.50;99.90;;;;;;2216459;64;20119;-48
2022/01/27 09:57:17;;;;;;;6.53;1.87;;;-5.70;99.90;;;;;;2220398;64;20089;-48
2022/01/27 09:59:44;;;;;;;24.70;8.87;;;-5.70;99.90;;;;;;2220559;64;20127;-47
2022/01/27 10:02:15;;;;;;;30.50;9.10;;;-5.80;99.90;;;;;;2220423;64;20107;-49
2022/01/27 10:04:46;;;;;;;21.73;7.60;;;-5.80;99.90;;;;;;2220379;64;20080;-49
2022/01/27 10:07:15;;;;;;;21.67;8.27;;;-5.90;99.90;;;;;;2220206;64;20482;-48
2022/01/27 10:10:05;;;;;;;23.97;10.47;;;-5.90;99.90;;;;;;2220487;64;20115;-47
2022/01/27 10:12:38;;;;;;;24.10;8.27;;;-6.00;99.90;;;;;;2217866;64;20578;-49
2022/01/27 10:15:18;;;;;;;19.70;7.63;;;-6.10;99.90;;;;;;2220389;64;20088;-50
2022/01/27 10:18:12;;;;;;;21.00;9.23;;;-6.20;99.90;;;;;;2220458;64;20107;-48
2022/01/27 10:20:52;;;;;;;18.80;7.47;;;-6.10;99.90;;;;;;2220779;64;20100;-47
2022/01/27 10:23:21;;;;;;;23.13;7.90;;;-6.10;99.90;;;;;;2217419;64;20524;-53
2022/01/27 10:25:54;;;;;;;22.23;8.13;;;-6.10;99.90;;;;;;2223536;64;20096;-48
2022/01/27 10:28:46;;;;;;;21.37;6.30;;;-6.10;99.90;;;;;;2224770;64;20091;-45
2022/01/27 10:31:23;;;;;;;16.77;7.03;;;-6.00;99.90;;;;;;2224790;64;20096;-49
2022/01/27 10:33:59;;;;;;;18.97;7.30;;;-6.00;99.90;;;;;;2221237;64;20169;-46
2022/01/27 10:36:25;;;;;;;25.77;7.77;;;-6.00;99.90;;;;;;2221345;64;20095;-46
2022/01/27 10:39:24;;;;;;;19.10;6.67;;;-6.10;99.90;;;;;;2224920;64;20099;-45
2022/01/27 10:42:06;;;;;;;23.00;8.50;;;-6.00;99.90;;;;;;2207693;64;20305;-49
2022/01/27 10:44:45;;;;;;;22.43;8.33;;;-6.00;99.90;;;;;;2207649;64;20596;-45
2022/01/27 10:47:18;;;;;;;23.33;8.27;;;-6.00;99.90;;;;;;2207689;64;20121;-47
2022/01/27 10:49:52;;;;;;;23.70;10.30;;;-5.90;99.90;;;;;;2207878;64;20094;-46
2022/01/27 10:52:40;;;;;;;31.33;9.83;;;-5.80;99.90;;;;;;2204767;64;20090;-47
2022/01/27 10:55:08;;;;;;;20.87;7.37;;;-5.80;99.90;;;;;;2207906;64;20086;-47
2022/01/27 10:57:35;;;;;;;18.57;7.10;;;-5.80;99.90;;;;;;2207696;64;20537;-47
2022/01/27 11:00:10;;;;;;;28.57;9.53;;;-5.90;99.90;;;;;;2204570;64;20102;-48
2022/01/27 11:02:58;;;;;;;26.37;7.87;;;-5.90;99.90;;;;;;2207777;64;20146;-48
2022/01/27 11:05:34;;;;;;;22.33;8.43;;;-5.90;99.90;;;;;;2207627;64;20561;-46
2022/01/27 11:08:03;;;;;;;20.97;8.20;;;-5.90;99.90;;;;;;2207690;64;20115;-49
2022/01/27 11:10:30;;;;;;;19.13;6.37;;;-5.90;99.90;;;;;;2207648;64;20102;-46
2022/01/27 11:12:58;;;;;;;26.17;8.13;;;-5.80;99.90;;;;;;2204362;64;20567;-47
2022/01/27 11:15:24;;;;;;;22.17;8.00;;;-5.80;99.90;;;;;;2207855;64;20101;-47
2022/01/27 11:17:53;;;;;;;18.07;8.03;;;-5.80;99.90;;;;;;2212557;64;20092;-46
2022/01/27 11:20:29;;;;;;;15.00;6.20;;;-5.80;99.90;;;;;;2224940;64;20085;-46
2022/01/27 11:23:12;;;;;;;20.43;9.03;;;-5.90;99.90;;;;;;2224748;64;20174;-47
2022/01/27 11:28:06;;;;;;;21.27;6.53;;;-5.90;99.90;;;;;;2220694;64;20100;-45
2022/01/27 11:31:01;;;;;;;25.63;8.80;;;-5.90;99.90;;;;;;2216787;64;20156;-46
2022/01/27 11:33:32;;;;;;;16.75;6.57;;;-6.00;99.90;;;;;;2220814;64;20544;-45
2022/01/27 11:36:24;;;;;;;14.50;6.13;;;-6.00;99.90;;;;;;2220514;64;20491;-46
2022/01/27 11:38:51;;;;;;;21.93;6.60;;;-6.00;99.90;;;;;;2215704;64;20116;-46
2022/01/27 11:41:36;;;;;;;28.53;9.10;;;-6.10;99.90;;;;;;2213559;64;20104;-44
2022/01/27 11:44:24;;;;;;;20.33;7.67;;;-6.20;99.90;;;;;;2220786;64;20189;-46
2022/01/27 11:47:15;;;;;;;19.30;7.90;;;-6.30;99.90;;;;;;2220469;64;20111;-45
2022/01/27 11:49:59;;;;;;;25.23;8.60;;;-6.30;99.90;;;;;;2220513;64;20471;-42
2022/01/27 11:52:33;;;;;;;22.50;7.47;;;-6.40;99.90;;;;;;2220628;64;20088;-46
2022/01/27 11:55:24;;;;;;;25.48;6.47;;;-6.40;99.90;;;;;;2220686;64;20156;-46
2022/01/27 11:57:52;;;;;;;24.37;8.47;;;-6.50;99.90;;;;;;2220764;64;20147;-45
2022/01/27 12:00:20;;;;;;;22.63;6.77;;;-6.50;99.90;;;;;;2220794;64;20100;-43
2022/01/27 12:03:02;;;;;;;17.67;8.53;;;-6.50;99.90;;;;;;2220820;64;20574;-45
2022/01/27 12:05:32;;;;;;;23.90;7.87;;;-6.60;99.90;;;;;;2220665;64;20108;-45
2022/01/27 12:08:19;;;;;;;22.37;7.70;;;-6.60;99.90;;;;;;2217130;64;20147;-46
2022/01/27 12:10:58;;;;;;;20.40;6.93;;;-6.60;99.90;;;;;;2220619;64;20120;-46
2022/01/27 12:13:30;;;;;;;25.83;7.47;;;-6.70;99.90;;;;;;2221031;64;20165;-46
2022/01/27 12:16:23;;;;;;;26.20;8.17;;;-6.80;99.90;;;;;;2220628;64;20081;-45
2022/01/27 12:19:00;;;;;;;23.70;7.83;;;-6.90;99.90;;;;;;2220769;64;20081;-45
2022/01/27 12:21:45;;;;;;;25.03;9.43;;;-6.80;99.90;;;;;;2220785;64;20158;-45
2022/01/27 12:24:17;;;;;;;20.50;7.78;;;-6.90;99.90;;;;;;2221011;64;20579;-44
2022/01/27 12:26:53;;;;;;;21.77;7.83;;;-6.90;99.90;;;;;;2220689;64;20088;-45
2022/01/27 12:29:32;;;;;;;15.87;5.93;;;-6.90;99.90;;;;;;2220768;64;20095;-44
2022/01/27 12:32:06;;;;;;;30.40;9.07;;;-6.90;99.90;;;;;;2220387;64;20093;-44
2022/01/27 12:34:33;;;;;;;18.03;7.33;;;-6.90;99.90;;;;;;2220657;64;20081;-45
2022/01/27 12:37:09;;;;;;;19.70;7.70;;;-6.90;99.90;;;;;;2220033;64;20080;-47
2022/01/27 12:39:43;;;;;;;22.27;7.07;;;-7.00;99.90;;;;;;2220719;64;20544;-42
2022/01/27 12:42:16;;;;;;;21.17;7.60;;;-6.90;99.90;;;;;;2220509;64;20174;-44
2022/01/27 12:44:54;;;;;;;19.87;5.30;;;-7.00;99.90;;;;;;2220753;64;20085;-44
2022/01/27 12:47:20;;;;;;;22.73;7.27;;;-7.00;99.90;;;;;;2220041;64;20160;-44
2022/01/27 12:49:51;;;;;;;20.13;7.00;;;-7.00;99.90;;;;;;2220518;64;20092;-43
2022/01/27 12:52:23;;;;;;;24.27;8.63;;;-7.10;99.90;;;;;;2220468;64;20100;-45
2022/01/27 12:54:52;;;;;;;22.10;8.87;;;-7.10;99.90;;;;;;2220687;64;20124;-44
2022/01/27 12:57:37;;;;;;;22.47;9.17;;;-7.10;99.90;;;;;;2220604;64;20107;-45
2022/01/27 13:00:05;;;;;;;23.48;8.75;;;-7.20;99.90;;;;;;2220667;64;20093;-45
2022/01/27 13:02:32;;;;;;;21.33;8.80;;;-7.20;99.90;;;;;;2220405;64;20169;-47
2022/01/27 13:05:00;;;;;;;24.50;9.00;;;-7.20;99.90;;;;;;2220478;64;20460;-45
2022/01/27 13:07:28;;;;;;;24.37;8.37;;;-7.20;99.90;;;;;;2220416;64;20553;-44
2022/01/27 13:09:57;;;;;;;20.83;8.57;;;-7.10;99.90;;;;;;2211076;64;20472;-44
2022/01/27 13:12:29;;;;;;;24.00;7.50;;;-7.10;99.90;;;;;;2211154;64;20489;-44
2022/01/27 13:15:07;;;;;;;25.90;10.37;;;-7.10;99.90;;;;;;2211284;64;20089;-45
2022/01/27 13:17:40;;;;;;;23.90;9.77;;;-7.10;99.90;;;;;;2211126;64;20155;-45
2022/01/27 13:20:44;;;;;;;19.33;8.30;;;-7.20;99.90;;;;;;2211138;64;20648;-43
2022/01/27 13:23:25;;;;;;;28.37;11.47;;;-7.20;99.90;;;;;;2210787;64;20627;-46
2022/01/27 13:26:00;;;;;;;27.17;8.80;;;-7.20;99.90;;;;;;2210805;64;20089;-44
2022/01/27 13:28:38;;;;;;;27.07;9.37;;;-7.20;99.90;;;;;;2211728;64;20093;-45